USTS Kennedy — KVMU — position and weather

sailwx.info

Track history (hours):
 
Tides and Currents Weather Stations Pressure Air Temp Water Temp Dewpoint Dewpoint Depression Visibility Wind Speed Wind Dir Waves Ship Positions

USTS Kennedy (United States)

Training ship of Massachusetts Maritime Academy. Ex Cape Bon, ex Velma Lykes, ex Enterprise.

Ship's website: http://www.maritime.edu/

Owner: Massachusetts Maritime Academy, Buzzards Bay, MA. More information available from US FCC via Universal Licensing System and Coast Guard Vessel Documentation Center.

Last reported at 2019-Feb-24 10:42 UTC. Time now 2019-Mar-22 06:17 UTC.
Position N 41°48' W 070°26'.
Warning: this ship's position is 25 days out of date.

Type: Ship. MMSI: 338919000.

Date/timePositionNaut miles runAvg speedWind from/ knotsBaromVisibWave heightAir tempDewpointWater temp
2019-Feb-24 10:42N 41°48' W 070°26'0 0.0
2019-Feb-24 09:54N 41°48' W 070°26'0 0.0
2019-Feb-24 09:30N 41°48' W 070°26'0 0.0
2019-Feb-24 08:36N 41°48' W 070°26'19 1.7
2019-Feb-23 21:16N 42°07' W 070°31'3 9.6
2019-Feb-23 21:00N 42°09' W 070°29'11 9.1
2019-Feb-23 19:48N 42°10' W 070°15'185 6.5
2019-Feb-22 15:21N 40°25' W 073°37'5 9.2
2019-Feb-22 14:51N 40°25' W 073°43'3 8.7
2019-Feb-22 14:30N 40°25' W 073°47'3 6.9
2019-Feb-22 14:00N 40°27' W 073°50'5 9.3
2019-Feb-22 13:30N 40°30' W 073°56'510.3
2019-Feb-22 13:00N 40°32' W 074°01'510.8
2019-Feb-22 12:30N 40°37' W 074°03'1 2.1
2019-Feb-22 12:00N 40°38' W 074°04'0 0.2
2019-Feb-22 11:27N 40°38' W 074°04'0 0.1
2019-Feb-22 11:00N 40°38' W 074°04'0 0.0
2019-Feb-22 10:30N 40°38' W 074°04'0 0.1
2019-Feb-22 10:00N 40°38' W 074°04'0 0.0
2019-Feb-22 09:30N 40°38' W 074°04'0 0.0
2019-Feb-22 09:00N 40°38' W 074°04'0 0.0
2019-Feb-22 08:30N 40°38' W 074°04'0 0.0
2019-Feb-22 08:00N 40°38' W 074°04'0 0.0
2019-Feb-22 07:30N 40°38' W 074°04'0 0.0
2019-Feb-22 07:00N 40°38' W 074°04'0 0.0
2019-Feb-22 06:30N 40°38' W 074°04'0 0.0
2019-Feb-22 05:57N 40°38' W 074°04'0 0.0
2019-Feb-22 05:30N 40°38' W 074°04'0 0.0
2019-Feb-22 05:00N 40°38' W 074°04'0 0.0
2019-Feb-22 04:30N 40°38' W 074°04'0 0.2
2019-Feb-22 04:00N 40°38' W 074°04'0 0.1
2019-Feb-22 03:30N 40°38' W 074°04'0 0.1
2019-Feb-22 03:00N 40°38' W 074°04'0 0.0
2019-Feb-22 02:30N 40°38' W 074°04'0 0.0
2019-Feb-22 02:00N 40°38' W 074°04'0 0.0
2019-Feb-22 01:30N 40°38' W 074°04'0 0.0
2019-Feb-22 01:00N 40°38' W 074°04'0 0.1
2019-Feb-22 00:30N 40°38' W 074°04'0 0.1
2019-Feb-22 00:00N 40°38' W 074°04'0 0.1
2019-Feb-21 23:30N 40°38' W 074°04'0 0.2
2019-Feb-21 23:00N 40°38' W 074°04'0 0.0
2019-Feb-21 22:30N 40°38' W 074°04'0 0.0
2019-Feb-21 21:57N 40°38' W 074°04'0 0.1
2019-Feb-21 21:24N 40°38' W 074°04'0 0.0
2019-Feb-21 21:00N 40°38' W 074°04'0 0.0
2019-Feb-21 20:30N 40°38' W 074°04'0 0.0
2019-Feb-21 20:00N 40°38' W 074°04'0 0.0
2019-Feb-21 19:30N 40°38' W 074°04'0 0.0
2019-Feb-21 19:00N 40°38' W 074°04'0 0.0
2019-Feb-21 18:30N 40°38' W 074°04'0 0.1
2019-Feb-21 18:00N 40°38' W 074°04'0 0.1
2019-Feb-21 17:27N 40°38' W 074°04'0 0.9
2019-Feb-21 17:00N 40°38' W 074°04'2 4.9
2019-Feb-21 16:30N 40°36' W 074°02'510.9
2019-Feb-21 16:00N 40°31' W 073°59'5 9.5
2019-Feb-21 15:30N 40°29' W 073°53'4 8.6
2019-Feb-21 15:00N 40°27' W 073°48'6735.7
2019-Feb-21 15:00N 40°24' W 073°42'4 7.0 250 / 161014.0 5.4 3.3 2.2 4.4
2019-Feb-21 14:27N 40°24' W 073°47'37 7.4
2019-Feb-21 09:25N 39°47' W 073°41'614.8
2019-Feb-21 09:00N 39°42' W 073°36'20 6.7 240 / 121011.0 0.1 5.6 5.6 5.0
2019-Feb-21 06:00N 39°24' W 073°48'19 6.2 170 / 81014.0 0.1 7.2 7.2 8.3
2019-Feb-21 03:00N 39°06' W 073°54'19 6.2 110 / 101018.5 2.2 6.0 6.0 5.0
2019-Feb-21 00:00N 38°48' W 074°00'3612.1 090 / 271024.9 2.2 6.0 6.0 7.0
2019-Feb-20 21:00N 38°12' W 074°06'4214.1 090 / 351027.0 5.4 10.0 8.112.0
2019-Feb-20 18:00N 37°30' W 074°12'5518.3 060 / 341024.0 0.3 7.0 4.918.0
2019-Feb-20 15:00N 36°36' W 074°24'6120.3 070 / 301013.0 5.4 8.0 6.012.0
2019-Feb-20 12:00N 35°36' W 074°36'4314.4 080 / 201030.0 2.2 12.8 9.723.3
2019-Feb-20 09:00N 34°54' W 074°48'3912.9 080 / 391031.010.8 14.4 8.323.4
2019-Feb-20 06:00N 34°24' W 075°18'18015.0 080 / 161031.510.8 15.0 8.625.0
2019-Feb-19 18:00N 32°06' W 077°36'10317.1 070 / 321028.010.8 20.615.224.4
2019-Feb-19 12:00N 30°48' W 078°54'7811.2 360 / 281023.010.8 21.715.624.4
2019-Feb-19 05:00N 29°36' W 079°30'8416.8 050 / 221022.0 5.4 24.421.324.4
2019-Feb-19 00:00N 28°12' W 079°36'5418.1 150 / 141020.010.8 26.023.225.5
2019-Feb-18 21:00N 27°18' W 079°42'4813.1 040 / 141019.010.8 23.021.626.0
2019-Feb-18 17:20N 26°30' W 079°47'716.5
2019-Feb-18 16:54N 26°23' W 079°47'716.5
2019-Feb-18 16:30N 26°16' W 079°48'815.7
2019-Feb-18 15:58N 26°08' W 079°49'715.6
2019-Feb-18 15:30N 26°02' W 079°52'815.8
2019-Feb-18 15:00N 25°55' W 079°57'815.6
2019-Feb-18 14:31N 25°48' W 080°01'611.8
2019-Feb-18 14:00N 25°45' W 080°07'4 7.5
2019-Feb-18 13:30N 25°47' W 080°11'0 0.5
2019-Feb-18 13:00N 25°47' W 080°11'0 0.0
2019-Feb-18 12:30N 25°47' W 080°11'0 0.0
2019-Feb-18 12:00N 25°47' W 080°11'0 0.0
2019-Feb-18 11:30N 25°47' W 080°11'0 0.0
2019-Feb-18 10:57N 25°47' W 080°11'0 0.0
2019-Feb-18 10:27N 25°47' W 080°11'0 0.0
2019-Feb-18 09:57N 25°47' W 080°11'0 0.0
2019-Feb-18 09:30N 25°47' W 080°11'0 0.0
2019-Feb-18 09:00N 25°47' W 080°11'0 0.0
2019-Feb-18 08:30N 25°47' W 080°11'0 0.0
2019-Feb-18 07:54N 25°47' W 080°11'0 0.0
2019-Feb-18 07:30N 25°47' W 080°11'0 0.0
2019-Feb-18 07:00N 25°47' W 080°11'0 0.0
2019-Feb-18 06:21N 25°47' W 080°11'0 0.0
2019-Feb-18 05:54N 25°47' W 080°11'0 0.0
2019-Feb-18 05:27N 25°47' W 080°11'0 0.0
2019-Feb-18 05:00N 25°47' W 080°11'0 0.0
2019-Feb-18 04:27N 25°47' W 080°11'0 0.0
2019-Feb-18 04:00N 25°47' W 080°11'0 0.0
2019-Feb-18 03:27N 25°47' W 080°11'0 0.0
2019-Feb-18 03:00N 25°47' W 080°11'0 0.0
2019-Feb-18 02:30N 25°47' W 080°11'0 0.0
2019-Feb-18 02:00N 25°47' W 080°11'0 0.0
2019-Feb-18 01:30N 25°47' W 080°11'0 0.0
2019-Feb-18 01:00N 25°47' W 080°11'0 0.0
2019-Feb-18 00:30N 25°47' W 080°11'0 0.0
2019-Feb-18 00:00N 25°47' W 080°11'0 0.0
2019-Feb-17 23:27N 25°47' W 080°11'0 0.0
2019-Feb-17 22:57N 25°47' W 080°11'0 0.0
2019-Feb-17 22:30N 25°47' W 080°11'0 0.0
2019-Feb-17 21:59N 25°47' W 080°11'0 0.0
2019-Feb-17 21:29N 25°47' W 080°11'0 0.0
2019-Feb-17 21:00N 25°47' W 080°11'0 0.0
2019-Feb-17 20:29N 25°47' W 080°11'0 0.0
2019-Feb-17 20:00N 25°47' W 080°11'0 0.0
2019-Feb-17 19:27N 25°47' W 080°11'0 0.0
2019-Feb-17 18:57N 25°47' W 080°11'0 0.0
2019-Feb-17 18:29N 25°47' W 080°11'0 0.0
2019-Feb-17 17:59N 25°47' W 080°11'0 0.0
2019-Feb-17 17:27N 25°47' W 080°11'0 0.0
2019-Feb-17 17:00N 25°47' W 080°11'0 0.0
2019-Feb-17 16:23N 25°47' W 080°11'0 0.0
2019-Feb-17 16:00N 25°47' W 080°11'0 0.0
2019-Feb-17 15:29N 25°47' W 080°11'0 0.5
2019-Feb-17 15:00N 25°47' W 080°11'1 2.5
2019-Feb-17 14:30N 25°46' W 080°10'0 0.0
2019-Feb-17 14:00N 25°46' W 080°10'0 0.0
2019-Feb-17 13:30N 25°46' W 080°10'0 0.1
2019-Feb-17 13:00N 25°46' W 080°10'1 2.0
2019-Feb-17 12:28N 25°47' W 080°11'0 0.0
2019-Feb-17 11:58N 25°47' W 080°11'0 0.0
2019-Feb-17 11:28N 25°47' W 080°11'0 0.0
2019-Feb-17 10:49N 25°47' W 080°11'0 0.0
2019-Feb-17 10:28N 25°47' W 080°11'0 0.0
2019-Feb-17 09:58N 25°47' W 080°11'0 0.0
2019-Feb-17 09:28N 25°47' W 080°11'0 0.0
2019-Feb-17 08:58N 25°47' W 080°11'0 0.0
2019-Feb-17 08:22N 25°47' W 080°11'0 0.0
2019-Feb-17 07:55N 25°47' W 080°11'0 0.0
2019-Feb-17 07:22N 25°47' W 080°11'0 0.0
2019-Feb-17 06:55N 25°47' W 080°11'0 0.0
2019-Feb-17 06:28N 25°47' W 080°11'0 0.0
2019-Feb-17 05:58N 25°47' W 080°11'0 0.0
2019-Feb-17 05:25N 25°47' W 080°11'0 0.0
2019-Feb-17 04:58N 25°47' W 080°11'0 0.0
2019-Feb-17 04:25N 25°47' W 080°11'0 0.0
2019-Feb-17 03:58N 25°47' W 080°11'0 0.0
2019-Feb-17 03:25N 25°47' W 080°11'0 0.0
2019-Feb-17 02:58N 25°47' W 080°11'0 0.0
2019-Feb-17 02:28N 25°47' W 080°11'0 0.0
2019-Feb-17 01:58N 25°47' W 080°11'0 0.0
2019-Feb-17 01:28N 25°47' W 080°11'0 0.0
2019-Feb-17 00:58N 25°47' W 080°11'0 0.0
2019-Feb-17 00:25N 25°47' W 080°11'0 0.0
2019-Feb-16 23:58N 25°47' W 080°11'0 0.0
2019-Feb-16 23:28N 25°47' W 080°11'0 0.0
2019-Feb-16 22:58N 25°47' W 080°11'0 0.0
2019-Feb-16 22:28N 25°47' W 080°11'0 0.0
2019-Feb-16 21:58N 25°47' W 080°11'0 0.0
2019-Feb-16 21:28N 25°47' W 080°11'0 0.0
2019-Feb-16 20:58N 25°47' W 080°11'0 0.0
2019-Feb-16 20:28N 25°47' W 080°11'0 0.0
2019-Feb-16 19:55N 25°47' W 080°11'0 0.0
2019-Feb-16 19:28N 25°47' W 080°11'0 0.0
2019-Feb-16 18:52N 25°47' W 080°11'0 0.0
2019-Feb-16 18:28N 25°47' W 080°11'0 0.0
2019-Feb-16 17:52N 25°47' W 080°11'0 0.0
2019-Feb-16 17:25N 25°47' W 080°11'0 0.0
2019-Feb-16 16:58N 25°47' W 080°11'0 0.0
2019-Feb-16 16:28N 25°47' W 080°11'0 0.0
2019-Feb-16 15:52N 25°47' W 080°11'0 0.0
2019-Feb-16 15:28N 25°47' W 080°11'0 0.0
2019-Feb-16 14:55N 25°47' W 080°11'0 0.0
2019-Feb-16 14:28N 25°47' W 080°11'0 0.0
2019-Feb-16 13:58N 25°47' W 080°11'0 0.0
2019-Feb-16 13:28N 25°47' W 080°11'0 0.0
2019-Feb-16 12:58N 25°47' W 080°11'0 0.0
2019-Feb-16 12:28N 25°47' W 080°11'0 0.0
2019-Feb-16 11:58N 25°47' W 080°11'0 0.0
2019-Feb-16 11:28N 25°47' W 080°11'0 0.0
2019-Feb-16 10:58N 25°47' W 080°11'0 0.0
2019-Feb-16 10:28N 25°47' W 080°11'0 0.0
2019-Feb-16 09:58N 25°47' W 080°11'0 0.0
2019-Feb-16 09:28N 25°47' W 080°11'0 0.0
2019-Feb-16 08:58N 25°47' W 080°11'0 0.0
2019-Feb-16 08:28N 25°47' W 080°11'0 0.0
2019-Feb-16 07:52N 25°47' W 080°11'0 0.0
2019-Feb-16 07:25N 25°47' W 080°11'0 0.0
2019-Feb-16 06:58N 25°47' W 080°11'0 0.0
2019-Feb-16 06:28N 25°47' W 080°11'0 0.0
2019-Feb-16 05:58N 25°47' W 080°11'0 0.0
2019-Feb-16 05:28N 25°47' W 080°11'0 0.0
2019-Feb-16 04:55N 25°47' W 080°11'0 0.0
2019-Feb-16 04:19N 25°47' W 080°11'0 0.0
2019-Feb-16 03:49N 25°47' W 080°11'0 0.0
2019-Feb-16 03:19N 25°47' W 080°11'0 0.0
2019-Feb-16 02:58N 25°47' W 080°11'0 0.0
2019-Feb-16 02:28N 25°47' W 080°11'0 0.0
2019-Feb-16 01:58N 25°47' W 080°11'0 0.0
2019-Feb-16 01:25N 25°47' W 080°11'0 0.0
2019-Feb-16 00:58N 25°47' W 080°11'0 0.0
2019-Feb-16 00:28N 25°47' W 080°11'0 0.0
2019-Feb-15 23:55N 25°47' W 080°11'0 0.0
2019-Feb-15 23:25N 25°47' W 080°11'0 0.0
2019-Feb-15 22:58N 25°47' W 080°11'0 0.0
2019-Feb-15 22:28N 25°47' W 080°11'0 0.0
2019-Feb-15 21:58N 25°47' W 080°11'0 0.0
2019-Feb-15 21:28N 25°47' W 080°11'0 0.0
2019-Feb-15 20:58N 25°47' W 080°11'0 0.0
2019-Feb-15 20:28N 25°47' W 080°11'0 0.0
2019-Feb-15 19:58N 25°47' W 080°11'0 0.0
2019-Feb-15 19:28N 25°47' W 080°11'613.7
2019-Feb-15 19:00N 25°42' W 080°06'6229.2 1012.710.8 22.818.725.0
2019-Feb-15 18:58N 25°47' W 080°11'0 0.0
2019-Feb-15 18:28N 25°47' W 080°11'0 0.0
2019-Feb-15 17:58N 25°47' W 080°11'0 0.0
2019-Feb-15 17:28N 25°47' W 080°11'0 0.0
2019-Feb-15 16:58N 25°47' W 080°11'0 0.0
2019-Feb-15 16:28N 25°47' W 080°11'0 0.0
2019-Feb-15 15:58N 25°47' W 080°11'0 0.0
2019-Feb-15 15:22N 25°47' W 080°11'0 0.0
2019-Feb-15 14:58N 25°47' W 080°11'0 0.0
2019-Feb-15 14:28N 25°47' W 080°11'0 0.4
2019-Feb-15 14:00N 25°47' W 080°11'2 3.9
2019-Feb-15 13:30N 25°46' W 080°09'4 8.4
2019-Feb-15 13:00N 25°47' W 080°04'510.1
2019-Feb-15 12:30N 25°43' W 080°01'815.6
2019-Feb-15 12:00N 25°36' W 079°58'815.4
2019-Feb-15 11:29N 25°28' W 079°55'  
Track history (hours):
 
Tides and Currents Weather Stations Pressure Air Temp Water Temp Dewpoint Dewpoint Depression Visibility Wind Speed Wind Dir Waves Ship Positions

USTS Kennedy (United States)

Training ship of Massachusetts Maritime Academy. Ex Cape Bon, ex Velma Lykes, ex Enterprise.

Ship's website: http://www.maritime.edu/

Owner: Massachusetts Maritime Academy, Buzzards Bay, MA. More information available from US FCC via Universal Licensing System and Coast Guard Vessel Documentation Center.

Last reported at 2019-Feb-24 10:42 UTC. Time now 2019-Mar-22 06:17 UTC.
Position N 41°48' W 070°26'.
Warning: this ship's position is 25 days out of date.

Type: Ship. MMSI: 338919000.

Date/timePositionNaut miles runAvg speedWind from/ knotsBaromVisibWave heightAir tempDewpointWater temp
2019-Feb-24 10:42N 41°48' W 070°26'0 0.0
2019-Feb-24 09:54N 41°48' W 070°26'0 0.0
2019-Feb-24 09:30N 41°48' W 070°26'0 0.0
2019-Feb-24 08:36N 41°48' W 070°26'19 1.7
2019-Feb-23 21:16N 42°07' W 070°31'3 9.6
2019-Feb-23 21:00N 42°09' W 070°29'11 9.1
2019-Feb-23 19:48N 42°10' W 070°15'185 6.5
2019-Feb-22 15:21N 40°25' W 073°37'5 9.2
2019-Feb-22 14:51N 40°25' W 073°43'3 8.7
2019-Feb-22 14:30N 40°25' W 073°47'3 6.9
2019-Feb-22 14:00N 40°27' W 073°50'5 9.3
2019-Feb-22 13:30N 40°30' W 073°56'510.3
2019-Feb-22 13:00N 40°32' W 074°01'510.8
2019-Feb-22 12:30N 40°37' W 074°03'1 2.1
2019-Feb-22 12:00N 40°38' W 074°04'0 0.2
2019-Feb-22 11:27N 40°38' W 074°04'0 0.1
2019-Feb-22 11:00N 40°38' W 074°04'0 0.0
2019-Feb-22 10:30N 40°38' W 074°04'0 0.1
2019-Feb-22 10:00N 40°38' W 074°04'0 0.0
2019-Feb-22 09:30N 40°38' W 074°04'0 0.0
2019-Feb-22 09:00N 40°38' W 074°04'0 0.0
2019-Feb-22 08:30N 40°38' W 074°04'0 0.0
2019-Feb-22 08:00N 40°38' W 074°04'0 0.0
2019-Feb-22 07:30N 40°38' W 074°04'0 0.0
2019-Feb-22 07:00N 40°38' W 074°04'0 0.0
2019-Feb-22 06:30N 40°38' W 074°04'0 0.0
2019-Feb-22 05:57N 40°38' W 074°04'0 0.0
2019-Feb-22 05:30N 40°38' W 074°04'0 0.0
2019-Feb-22 05:00N 40°38' W 074°04'0 0.0
2019-Feb-22 04:30N 40°38' W 074°04'0 0.2
2019-Feb-22 04:00N 40°38' W 074°04'0 0.1
2019-Feb-22 03:30N 40°38' W 074°04'0 0.1
2019-Feb-22 03:00N 40°38' W 074°04'0 0.0
2019-Feb-22 02:30N 40°38' W 074°04'0 0.0
2019-Feb-22 02:00N 40°38' W 074°04'0 0.0
2019-Feb-22 01:30N 40°38' W 074°04'0 0.0
2019-Feb-22 01:00N 40°38' W 074°04'0 0.1
2019-Feb-22 00:30N 40°38' W 074°04'0 0.1
2019-Feb-22 00:00N 40°38' W 074°04'0 0.1
2019-Feb-21 23:30N 40°38' W 074°04'0 0.2
2019-Feb-21 23:00N 40°38' W 074°04'0 0.0
2019-Feb-21 22:30N 40°38' W 074°04'0 0.0
2019-Feb-21 21:57N 40°38' W 074°04'0 0.1
2019-Feb-21 21:24N 40°38' W 074°04'0 0.0
2019-Feb-21 21:00N 40°38' W 074°04'0 0.0
2019-Feb-21 20:30N 40°38' W 074°04'0 0.0
2019-Feb-21 20:00N 40°38' W 074°04'0 0.0
2019-Feb-21 19:30N 40°38' W 074°04'0 0.0
2019-Feb-21 19:00N 40°38' W 074°04'0 0.0
2019-Feb-21 18:30N 40°38' W 074°04'0 0.1
2019-Feb-21 18:00N 40°38' W 074°04'0 0.1
2019-Feb-21 17:27N 40°38' W 074°04'0 0.9
2019-Feb-21 17:00N 40°38' W 074°04'2 4.9
2019-Feb-21 16:30N 40°36' W 074°02'510.9
2019-Feb-21 16:00N 40°31' W 073°59'5 9.5
2019-Feb-21 15:30N 40°29' W 073°53'4 8.6
2019-Feb-21 15:00N 40°27' W 073°48'6735.7
2019-Feb-21 15:00N 40°24' W 073°42'4 7.0 250 / 161014.0 5.4 3.3 2.2 4.4
2019-Feb-21 14:27N 40°24' W 073°47'37 7.4
2019-Feb-21 09:25N 39°47' W 073°41'614.8
2019-Feb-21 09:00N 39°42' W 073°36'20 6.7 240 / 121011.0 0.1 5.6 5.6 5.0
2019-Feb-21 06:00N 39°24' W 073°48'19 6.2 170 / 81014.0 0.1 7.2 7.2 8.3
2019-Feb-21 03:00N 39°06' W 073°54'19 6.2 110 / 101018.5 2.2 6.0 6.0 5.0
2019-Feb-21 00:00N 38°48' W 074°00'3612.1 090 / 271024.9 2.2 6.0 6.0 7.0
2019-Feb-20 21:00N 38°12' W 074°06'4214.1 090 / 351027.0 5.4 10.0 8.112.0
2019-Feb-20 18:00N 37°30' W 074°12'5518.3 060 / 341024.0 0.3 7.0 4.918.0
2019-Feb-20 15:00N 36°36' W 074°24'6120.3 070 / 301013.0 5.4 8.0 6.012.0
2019-Feb-20 12:00N 35°36' W 074°36'4314.4 080 / 201030.0 2.2 12.8 9.723.3
2019-Feb-20 09:00N 34°54' W 074°48'3912.9 080 / 391031.010.8 14.4 8.323.4
2019-Feb-20 06:00N 34°24' W 075°18'18015.0 080 / 161031.510.8 15.0 8.625.0
2019-Feb-19 18:00N 32°06' W 077°36'10317.1 070 / 321028.010.8 20.615.224.4
2019-Feb-19 12:00N 30°48' W 078°54'7811.2 360 / 281023.010.8 21.715.624.4
2019-Feb-19 05:00N 29°36' W 079°30'8416.8 050 / 221022.0 5.4 24.421.324.4
2019-Feb-19 00:00N 28°12' W 079°36'5418.1 150 / 141020.010.8 26.023.225.5
2019-Feb-18 21:00N 27°18' W 079°42'4813.1 040 / 141019.010.8 23.021.626.0
2019-Feb-18 17:20N 26°30' W 079°47'716.5
2019-Feb-18 16:54N 26°23' W 079°47'716.5
2019-Feb-18 16:30N 26°16' W 079°48'815.7
2019-Feb-18 15:58N 26°08' W 079°49'715.6
2019-Feb-18 15:30N 26°02' W 079°52'815.8
2019-Feb-18 15:00N 25°55' W 079°57'815.6
2019-Feb-18 14:31N 25°48' W 080°01'611.8
2019-Feb-18 14:00N 25°45' W 080°07'4 7.5
2019-Feb-18 13:30N 25°47' W 080°11'0 0.5
2019-Feb-18 13:00N 25°47' W 080°11'0 0.0
2019-Feb-18 12:30N 25°47' W 080°11'0 0.0
2019-Feb-18 12:00N 25°47' W 080°11'0 0.0
2019-Feb-18 11:30N 25°47' W 080°11'0 0.0
2019-Feb-18 10:57N 25°47' W 080°11'0 0.0
2019-Feb-18 10:27N 25°47' W 080°11'0 0.0
2019-Feb-18 09:57N 25°47' W 080°11'0 0.0
2019-Feb-18 09:30N 25°47' W 080°11'0 0.0
2019-Feb-18 09:00N 25°47' W 080°11'0 0.0
2019-Feb-18 08:30N 25°47' W 080°11'0 0.0
2019-Feb-18 07:54N 25°47' W 080°11'0 0.0
2019-Feb-18 07:30N 25°47' W 080°11'0 0.0
2019-Feb-18 07:00N 25°47' W 080°11'0 0.0
2019-Feb-18 06:21N 25°47' W 080°11'0 0.0
2019-Feb-18 05:54N 25°47' W 080°11'0 0.0
2019-Feb-18 05:27N 25°47' W 080°11'0 0.0
2019-Feb-18 05:00N 25°47' W 080°11'0 0.0
2019-Feb-18 04:27N 25°47' W 080°11'0 0.0
2019-Feb-18 04:00N 25°47' W 080°11'0 0.0
2019-Feb-18 03:27N 25°47' W 080°11'0 0.0
2019-Feb-18 03:00N 25°47' W 080°11'0 0.0
2019-Feb-18 02:30N 25°47' W 080°11'0 0.0
2019-Feb-18 02:00N 25°47' W 080°11'0 0.0
2019-Feb-18 01:30N 25°47' W 080°11'0 0.0
2019-Feb-18 01:00N 25°47' W 080°11'0 0.0
2019-Feb-18 00:30N 25°47' W 080°11'0 0.0
2019-Feb-18 00:00N 25°47' W 080°11'0 0.0
2019-Feb-17 23:27N 25°47' W 080°11'0 0.0
2019-Feb-17 22:57N 25°47' W 080°11'0 0.0
2019-Feb-17 22:30N 25°47' W 080°11'0 0.0
2019-Feb-17 21:59N 25°47' W 080°11'0 0.0
2019-Feb-17 21:29N 25°47' W 080°11'0 0.0
2019-Feb-17 21:00N 25°47' W 080°11'0 0.0
2019-Feb-17 20:29N 25°47' W 080°11'0 0.0
2019-Feb-17 20:00N 25°47' W 080°11'0 0.0
2019-Feb-17 19:27N 25°47' W 080°11'0 0.0
2019-Feb-17 18:57N 25°47' W 080°11'0 0.0
2019-Feb-17 18:29N 25°47' W 080°11'0 0.0
2019-Feb-17 17:59N 25°47' W 080°11'0 0.0
2019-Feb-17 17:27N 25°47' W 080°11'0 0.0
2019-Feb-17 17:00N 25°47' W 080°11'0 0.0
2019-Feb-17 16:23N 25°47' W 080°11'0 0.0
2019-Feb-17 16:00N 25°47' W 080°11'0 0.0
2019-Feb-17 15:29N 25°47' W 080°11'0 0.5
2019-Feb-17 15:00N 25°47' W 080°11'1 2.5
2019-Feb-17 14:30N 25°46' W 080°10'0 0.0
2019-Feb-17 14:00N 25°46' W 080°10'0 0.0
2019-Feb-17 13:30N 25°46' W 080°10'0 0.1
2019-Feb-17 13:00N 25°46' W 080°10'1 2.0
2019-Feb-17 12:28N 25°47' W 080°11'0 0.0
2019-Feb-17 11:58N 25°47' W 080°11'0 0.0
2019-Feb-17 11:28N 25°47' W 080°11'0 0.0
2019-Feb-17 10:49N 25°47' W 080°11'0 0.0
2019-Feb-17 10:28N 25°47' W 080°11'0 0.0
2019-Feb-17 09:58N 25°47' W 080°11'0 0.0
2019-Feb-17 09:28N 25°47' W 080°11'0 0.0
2019-Feb-17 08:58N 25°47' W 080°11'0 0.0
2019-Feb-17 08:22N 25°47' W 080°11'0 0.0
2019-Feb-17 07:55N 25°47' W 080°11'0 0.0
2019-Feb-17 07:22N 25°47' W 080°11'0 0.0
2019-Feb-17 06:55N 25°47' W 080°11'0 0.0
2019-Feb-17 06:28N 25°47' W 080°11'0 0.0
2019-Feb-17 05:58N 25°47' W 080°11'0 0.0
2019-Feb-17 05:25N 25°47' W 080°11'0 0.0
2019-Feb-17 04:58N 25°47' W 080°11'0 0.0
2019-Feb-17 04:25N 25°47' W 080°11'0 0.0
2019-Feb-17 03:58N 25°47' W 080°11'0 0.0
2019-Feb-17 03:25N 25°47' W 080°11'0 0.0
2019-Feb-17 02:58N 25°47' W 080°11'0 0.0
2019-Feb-17 02:28N 25°47' W 080°11'0 0.0
2019-Feb-17 01:58N 25°47' W 080°11'0 0.0
2019-Feb-17 01:28N 25°47' W 080°11'0 0.0
2019-Feb-17 00:58N 25°47' W 080°11'0 0.0
2019-Feb-17 00:25N 25°47' W 080°11'0 0.0
2019-Feb-16 23:58N 25°47' W 080°11'0 0.0
2019-Feb-16 23:28N 25°47' W 080°11'0 0.0
2019-Feb-16 22:58N 25°47' W 080°11'0 0.0
2019-Feb-16 22:28N 25°47' W 080°11'0 0.0
2019-Feb-16 21:58N 25°47' W 080°11'0 0.0
2019-Feb-16 21:28N 25°47' W 080°11'0 0.0
2019-Feb-16 20:58N 25°47' W 080°11'0 0.0
2019-Feb-16 20:28N 25°47' W 080°11'0 0.0
2019-Feb-16 19:55N 25°47' W 080°11'0 0.0
2019-Feb-16 19:28N 25°47' W 080°11'0 0.0
2019-Feb-16 18:52N 25°47' W 080°11'0 0.0
2019-Feb-16 18:28N 25°47' W 080°11'0 0.0
2019-Feb-16 17:52N 25°47' W 080°11'0 0.0
2019-Feb-16 17:25N 25°47' W 080°11'0 0.0
2019-Feb-16 16:58N 25°47' W 080°11'0 0.0
2019-Feb-16 16:28N 25°47' W 080°11'0 0.0
2019-Feb-16 15:52N 25°47' W 080°11'0 0.0
2019-Feb-16 15:28N 25°47' W 080°11'0 0.0
2019-Feb-16 14:55N 25°47' W 080°11'0 0.0
2019-Feb-16 14:28N 25°47' W 080°11'0 0.0
2019-Feb-16 13:58N 25°47' W 080°11'0 0.0
2019-Feb-16 13:28N 25°47' W 080°11'0 0.0
2019-Feb-16 12:58N 25°47' W 080°11'0 0.0
2019-Feb-16 12:28N 25°47' W 080°11'0 0.0
2019-Feb-16 11:58N 25°47' W 080°11'0 0.0
2019-Feb-16 11:28N 25°47' W 080°11'0 0.0
2019-Feb-16 10:58N 25°47' W 080°11'0 0.0
2019-Feb-16 10:28N 25°47' W 080°11'0 0.0
2019-Feb-16 09:58N 25°47' W 080°11'0 0.0
2019-Feb-16 09:28N 25°47' W 080°11'0 0.0
2019-Feb-16 08:58N 25°47' W 080°11'0 0.0
2019-Feb-16 08:28N 25°47' W 080°11'0 0.0
2019-Feb-16 07:52N 25°47' W 080°11'0 0.0
2019-Feb-16 07:25N 25°47' W 080°11'0 0.0
2019-Feb-16 06:58N 25°47' W 080°11'0 0.0
2019-Feb-16 06:28N 25°47' W 080°11'0 0.0
2019-Feb-16 05:58N 25°47' W 080°11'0 0.0
2019-Feb-16 05:28N 25°47' W 080°11'0 0.0
2019-Feb-16 04:55N 25°47' W 080°11'0 0.0
2019-Feb-16 04:19N 25°47' W 080°11'0 0.0
2019-Feb-16 03:49N 25°47' W 080°11'0 0.0
2019-Feb-16 03:19N 25°47' W 080°11'0 0.0
2019-Feb-16 02:58N 25°47' W 080°11'0 0.0
2019-Feb-16 02:28N 25°47' W 080°11'0 0.0
2019-Feb-16 01:58N 25°47' W 080°11'0 0.0
2019-Feb-16 01:25N 25°47' W 080°11'0 0.0
2019-Feb-16 00:58N 25°47' W 080°11'0 0.0
2019-Feb-16 00:28N 25°47' W 080°11'0 0.0
2019-Feb-15 23:55N 25°47' W 080°11'0 0.0
2019-Feb-15 23:25N 25°47' W 080°11'0 0.0
2019-Feb-15 22:58N 25°47' W 080°11'0 0.0
2019-Feb-15 22:28N 25°47' W 080°11'0 0.0
2019-Feb-15 21:58N 25°47' W 080°11'0 0.0
2019-Feb-15 21:28N 25°47' W 080°11'0 0.0
2019-Feb-15 20:58N 25°47' W 080°11'0 0.0
2019-Feb-15 20:28N 25°47' W 080°11'0 0.0
2019-Feb-15 19:58N 25°47' W 080°11'0 0.0
2019-Feb-15 19:28N 25°47' W 080°11'613.7
2019-Feb-15 19:00N 25°42' W 080°06'6229.2 1012.710.8 22.818.725.0
2019-Feb-15 18:58N 25°47' W 080°11'0 0.0
2019-Feb-15 18:28N 25°47' W 080°11'0 0.0
2019-Feb-15 17:58N 25°47' W 080°11'0 0.0
2019-Feb-15 17:28N 25°47' W 080°11'0 0.0
2019-Feb-15 16:58N 25°47' W 080°11'0 0.0
2019-Feb-15 16:28N 25°47' W 080°11'0 0.0
2019-Feb-15 15:58N 25°47' W 080°11'0 0.0
2019-Feb-15 15:22N 25°47' W 080°11'0 0.0
2019-Feb-15 14:58N 25°47' W 080°11'0 0.0
2019-Feb-15 14:28N 25°47' W 080°11'0 0.4
2019-Feb-15 14:00N 25°47' W 080°11'2 3.9
2019-Feb-15 13:30N 25°46' W 080°09'4 8.4
2019-Feb-15 13:00N 25°47' W 080°04'510.1
2019-Feb-15 12:30N 25°43' W 080°01'815.6
2019-Feb-15 12:00N 25°36' W 079°58'815.4
2019-Feb-15 11:29N 25°28' W 079°55'  

Dump ship's entire track history